createdAt,value
2023-03-30T00:01:17.291Z,3.78
2023-03-30T00:03:47.960Z,3.82
2023-03-30T00:06:23.208Z,3.83
2023-03-30T00:08:58.202Z,3.85
2023-03-30T00:11:27.956Z,3.89
2023-03-30T00:13:57.434Z,3.88
2023-03-30T00:16:28.721Z,3.83
2023-03-30T00:18:58.519Z,3.79
2023-03-30T00:21:28.273Z,3.75
2023-03-30T00:24:01.102Z,3.71
2023-03-30T00:26:29.896Z,3.66
2023-03-30T00:28:58.317Z,3.65
2023-03-30T00:31:27.335Z,3.62
2023-03-30T00:33:56.318Z,3.54
2023-03-30T00:36:26.167Z,3.50
2023-03-30T00:38:55.377Z,3.46
2023-03-30T00:41:26.397Z,3.45
2023-03-30T00:43:58.140Z,3.44
2023-03-30T00:46:27.251Z,3.43
2023-03-30T00:48:58.906Z,3.42
2023-03-30T00:51:28.026Z,3.38
2023-03-30T00:54:01.829Z,3.37
2023-03-30T00:56:32.219Z,3.36
2023-03-30T00:59:03.812Z,3.36
2023-03-30T01:01:39.070Z,3.34
2023-03-30T01:04:11.245Z,3.36
2023-03-30T01:06:43.617Z,3.37
2023-03-30T01:09:12.537Z,3.38
2023-03-30T01:11:43.770Z,3.34
2023-03-30T01:14:16.450Z,3.30
2023-03-30T01:16:53.126Z,3.25
2023-03-30T01:19:48.741Z,3.20
2023-03-30T01:22:38.651Z,3.19
2023-03-30T01:25:31.130Z,3.19
2023-03-30T01:28:15.741Z,3.20
2023-03-30T01:31:06.853Z,3.18
2023-03-30T01:33:56.057Z,3.18
2023-03-30T01:36:58.096Z,3.19
2023-03-30T01:39:33.855Z,3.17
2023-03-30T01:42:12.257Z,3.14
2023-03-30T01:44:50.262Z,3.15
2023-03-30T01:47:24.838Z,3.14
2023-03-30T01:50:00.466Z,3.15
2023-03-30T01:52:37.112Z,3.17
2023-03-30T01:55:14.918Z,3.19
2023-03-30T01:57:49.238Z,3.20
2023-03-30T02:00:21.342Z,3.27
2023-03-30T02:02:54.796Z,3.27
2023-03-30T02:05:25.001Z,3.25
2023-03-30T02:08:02.042Z,3.23
2023-03-30T02:10:34.825Z,3.20
2023-03-30T02:13:04.648Z,3.20
2023-03-30T02:15:37.326Z,3.22
2023-03-30T02:18:06.657Z,3.23
2023-03-30T02:20:36.429Z,3.24
2023-03-30T02:23:06.775Z,3.27
2023-03-30T02:25:39.162Z,3.30
2023-03-30T02:28:09.389Z,3.38
2023-03-30T02:30:41.890Z,3.44
2023-03-30T02:33:17.592Z,3.50
2023-03-30T02:36:03.321Z,3.53
2023-03-30T02:39:07.470Z,3.56
2023-03-30T02:42:16.805Z,3.53
2023-03-30T02:44:49.697Z,3.56
2023-03-30T02:47:26.262Z,3.58
2023-03-30T02:50:01.011Z,3.60
2023-03-30T02:52:47.298Z,3.61
2023-03-30T02:55:22.528Z,3.59
2023-03-30T02:58:31.801Z,3.57
2023-03-30T03:01:33.807Z,3.53
2023-03-30T03:04:15.675Z,3.54
2023-03-30T03:07:07.498Z,3.52
2023-03-30T03:09:36.922Z,3.51
2023-03-30T03:12:07.225Z,3.51
2023-03-30T03:14:41.521Z,3.51
2023-03-30T03:17:10.277Z,3.55
2023-03-30T03:19:44.955Z,3.56
2023-03-30T03:22:16.123Z,3.60
2023-03-30T03:24:44.965Z,3.62
2023-03-30T03:27:16.594Z,3.66
2023-03-30T03:30:09.146Z,3.68
2023-03-30T03:32:44.490Z,3.69
2023-03-30T03:35:14.571Z,3.72
2023-03-30T03:37:43.235Z,3.73
2023-03-30T03:40:16.766Z,3.72
2023-03-30T03:42:46.134Z,3.72
2023-03-30T03:45:17.445Z,3.72
2023-03-30T03:47:55.742Z,3.72
2023-03-30T03:50:37.063Z,3.75
2023-03-30T03:53:05.984Z,3.79
2023-03-30T03:55:36.021Z,3.79
2023-03-30T03:58:05.901Z,3.80
2023-03-30T04:00:39.469Z,3.82
2023-03-30T04:03:09.205Z,3.85
2023-03-30T04:05:38.132Z,3.87
2023-03-30T04:08:11.046Z,3.88
2023-03-30T04:10:42.722Z,3.87
2023-03-30T04:13:20.548Z,3.87
2023-03-30T04:16:10.144Z,3.84
2023-03-30T04:19:00.086Z,3.81
2023-03-30T04:21:50.801Z,3.85
2023-03-30T04:24:37.805Z,3.87
2023-03-30T04:27:26.058Z,3.88
2023-03-30T04:29:57.951Z,3.91
2023-03-30T04:32:41.383Z,3.94
2023-03-30T04:35:14.877Z,4.00
2023-03-30T04:38:02.376Z,4.02
2023-03-30T04:40:40.009Z,4.07
2023-03-30T04:43:21.632Z,4.09
2023-03-30T04:46:10.681Z,4.12
2023-03-30T04:49:06.237Z,4.17
2023-03-30T04:51:54.819Z,4.20
2023-03-30T04:54:46.686Z,4.28
2023-03-30T04:57:34.076Z,4.33
2023-03-30T05:00:12.384Z,4.38
2023-03-30T05:03:22.385Z,4.44
2023-03-30T05:08:52.587Z,4.53
2023-03-30T05:11:40.164Z,4.58
2023-03-30T05:14:20.151Z,4.64
2023-03-30T05:17:07.661Z,4.73
2023-03-30T05:19:53.763Z,4.81
2023-03-30T05:22:47.132Z,4.92
2023-03-30T05:25:35.542Z,5.03
2023-03-30T05:28:23.913Z,5.15
2023-03-30T05:31:12.422Z,5.25
2023-03-30T05:33:52.351Z,5.32
2023-03-30T05:36:21.499Z,5.44
2023-03-30T05:39:23.515Z,5.50
2023-03-30T05:42:05.876Z,5.54
2023-03-30T05:44:52.044Z,5.59
2023-03-30T05:47:38.854Z,5.60
2023-03-30T05:50:14.275Z,5.63
2023-03-30T05:52:56.758Z,5.66
2023-03-30T05:55:34.660Z,5.68
2023-03-30T05:58:25.304Z,5.71
2023-03-30T06:01:10.735Z,5.75
2023-03-30T06:03:42.807Z,5.80
2023-03-30T06:06:13.848Z,5.82
2023-03-30T06:08:43.457Z,5.89
2023-03-30T06:11:17.398Z,5.96
2023-03-30T06:14:11.555Z,6.04
2023-03-30T06:16:43.208Z,6.09
2023-03-30T06:19:15.947Z,6.17
2023-03-30T06:21:46.615Z,6.21
2023-03-30T06:24:27.240Z,6.22
2023-03-30T06:26:57.059Z,6.34
2023-03-30T06:29:28.539Z,6.41
2023-03-30T06:31:57.493Z,6.54
2023-03-30T06:34:58.110Z,6.70
2023-03-30T06:37:29.002Z,6.80
2023-03-30T06:39:57.759Z,6.93
2023-03-30T06:42:28.135Z,7.05
2023-03-30T06:45:21.622Z,7.11
2023-03-30T06:47:50.523Z,7.19
2023-03-30T06:50:19.613Z,7.33
2023-03-30T06:53:11.201Z,7.48
2023-03-30T06:55:44.708Z,7.61
2023-03-30T06:58:22.206Z,7.74
2023-03-30T07:00:53.043Z,7.92
2023-03-30T07:03:30.094Z,8.02
2023-03-30T07:06:22.780Z,8.10
2023-03-30T07:08:51.810Z,8.17
2023-03-30T07:11:24.252Z,8.20
2023-03-30T07:13:56.340Z,8.20
2023-03-30T07:16:26.520Z,8.26
2023-03-30T07:18:55.939Z,8.30
2023-03-30T07:21:26.425Z,8.25
2023-03-30T07:23:55.108Z,8.27
2023-03-30T07:26:33.050Z,8.25
2023-03-30T07:29:07.642Z,8.29
2023-03-30T07:31:40.351Z,8.38
2023-03-30T07:34:11.454Z,8.53
2023-03-30T07:36:45.882Z,8.68
2023-03-30T07:39:14.912Z,8.85
2023-03-30T07:41:47.320Z,8.95
2023-03-30T07:44:16.059Z,9.02
2023-03-30T07:46:46.608Z,9.01
2023-03-30T07:49:21.779Z,9.09
2023-03-30T07:51:50.935Z,9.04
2023-03-30T07:54:27.209Z,9.04
2023-03-30T07:57:19.638Z,9.10
2023-03-30T07:59:48.276Z,9.19
2023-03-30T08:02:31.931Z,9.22
2023-03-30T08:05:01.407Z,9.18
2023-03-30T08:07:43.178Z,9.17
2023-03-30T08:10:19.019Z,9.18
2023-03-30T08:12:47.761Z,9.17
2023-03-30T08:15:16.355Z,9.10
2023-03-30T08:17:46.310Z,9.07
2023-03-30T08:20:16.171Z,9.08
2023-03-30T08:22:44.912Z,9.07
2023-03-30T08:25:14.015Z,9.03
2023-03-30T08:27:42.600Z,8.98
2023-03-30T08:30:14.681Z,8.95
2023-03-30T08:32:43.524Z,8.94
2023-03-30T08:35:14.182Z,8.91
2023-03-30T08:37:43.134Z,8.92
2023-03-30T08:40:19.022Z,8.91
2023-03-30T08:43:19.467Z,8.92
2023-03-30T08:45:48.918Z,8.95
2023-03-30T08:48:21.306Z,8.98
2023-03-30T08:50:58.188Z,9.04
2023-03-30T08:53:29.351Z,9.12
2023-03-30T08:56:02.873Z,9.21
2023-03-30T08:58:40.188Z,9.29
2023-03-30T09:01:19.880Z,9.40
2023-03-30T09:04:09.321Z,9.52
2023-03-30T09:06:49.604Z,9.67
2023-03-30T09:09:21.028Z,9.88
2023-03-30T09:11:55.054Z,10.17
2023-03-30T09:14:34.088Z,10.60
2023-03-30T09:17:10.201Z,10.87
2023-03-30T09:19:49.570Z,11.13
2023-03-30T09:22:21.077Z,11.40
2023-03-30T09:24:51.753Z,11.64
2023-03-30T09:27:29.462Z,11.80
2023-03-30T09:30:08.625Z,11.81
2023-03-30T09:32:43.473Z,11.85
2023-03-30T09:35:16.159Z,11.85
2023-03-30T09:37:46.963Z,11.88
2023-03-30T09:40:28.397Z,11.99
2023-03-30T09:43:03.119Z,11.95
2023-03-30T09:45:34.737Z,11.89
2023-03-30T09:48:08.965Z,11.89
2023-03-30T09:50:42.835Z,11.95
2023-03-30T09:53:24.936Z,12.00
2023-03-30T09:56:02.291Z,12.02
2023-03-30T09:58:33.084Z,12.05
2023-03-30T10:01:09.447Z,12.12
2023-03-30T10:03:40.291Z,12.27
2023-03-30T10:06:13.196Z,12.49
2023-03-30T10:08:50.709Z,12.70
2023-03-30T10:11:31.430Z,12.87
2023-03-30T10:14:01.076Z,13.11
2023-03-30T10:16:33.324Z,13.40
2023-03-30T10:19:04.312Z,13.71
2023-03-30T10:21:40.377Z,13.92
2023-03-30T10:24:23.539Z,13.94
2023-03-30T10:26:54.261Z,14.10
2023-03-30T10:29:25.031Z,14.36
2023-03-30T10:32:00.093Z,15.13
2023-03-30T10:34:37.793Z,15.95
2023-03-30T10:37:11.013Z,16.51
2023-03-30T10:39:43.985Z,16.61
2023-03-30T10:42:18.115Z,16.49
2023-03-30T10:44:50.718Z,16.60
2023-03-30T10:47:38.955Z,16.80
2023-03-30T10:50:17.322Z,16.93
2023-03-30T10:52:59.334Z,17.38
2023-03-30T10:55:41.819Z,17.63
2023-03-30T10:58:26.422Z,17.64
2023-03-30T11:01:05.277Z,17.80
2023-03-30T11:03:37.846Z,18.38
2023-03-30T11:06:15.339Z,18.92
2023-03-30T11:08:48.232Z,19.08
2023-03-30T11:11:25.166Z,18.86
2023-03-30T11:14:03.247Z,18.61
2023-03-30T11:16:40.643Z,18.80
2023-03-30T11:19:17.403Z,18.87
2023-03-30T11:21:57.839Z,18.32
2023-03-30T11:24:29.557Z,17.76
2023-03-30T11:27:08.384Z,17.38
2023-03-30T11:29:43.990Z,17.42
2023-03-30T11:32:26.232Z,17.66
2023-03-30T11:35:07.615Z,18.00
2023-03-30T11:37:42.685Z,18.31
2023-03-30T11:40:19.232Z,18.74
2023-03-30T11:42:51.018Z,18.77
2023-03-30T11:45:40.569Z,18.93
2023-03-30T11:48:27.127Z,19.22
2023-03-30T11:51:09.175Z,19.26
2023-03-30T11:53:42.115Z,18.61
2023-03-30T11:56:13.221Z,18.14
2023-03-30T11:58:48.231Z,17.70
2023-03-30T12:01:35.539Z,17.41
2023-03-30T12:04:11.119Z,17.05
2023-03-30T12:06:42.133Z,16.66
2023-03-30T12:09:25.019Z,16.21
2023-03-30T12:11:58.072Z,15.92
2023-03-30T12:15:11.662Z,15.73
2023-03-30T12:17:48.961Z,15.65
2023-03-30T12:20:30.297Z,15.55
2023-03-30T12:23:06.184Z,15.36
2023-03-30T12:25:42.279Z,15.19
2023-03-30T12:28:13.379Z,15.12
2023-03-30T12:30:55.124Z,15.09
2023-03-30T12:33:28.283Z,14.97
2023-03-30T12:35:59.919Z,14.83
2023-03-30T12:38:38.538Z,14.67
2023-03-30T12:41:18.659Z,14.51
2023-03-30T12:44:32.682Z,14.38
2023-03-30T12:47:20.105Z,14.25
2023-03-30T12:50:01.801Z,14.11
2023-03-30T12:52:43.151Z,14.05
2023-03-30T12:55:43.135Z,13.91
2023-03-30T12:58:50.272Z,13.84
2023-03-30T13:01:32.249Z,13.79
2023-03-30T13:04:07.888Z,13.75
2023-03-30T13:06:38.412Z,13.69
2023-03-30T13:09:52.532Z,13.67
2023-03-30T13:12:31.957Z,13.67
2023-03-30T13:15:08.371Z,13.70
2023-03-30T13:17:58.769Z,13.74
2023-03-30T13:20:34.419Z,13.69
2023-03-30T13:23:32.396Z,13.62
2023-03-30T13:26:08.032Z,13.56
2023-03-30T13:28:48.914Z,13.48
2023-03-30T13:31:37.987Z,13.41
2023-03-30T13:34:19.120Z,13.30
2023-03-30T13:37:01.283Z,13.30
2023-03-30T13:39:40.534Z,13.34
2023-03-30T13:42:34.580Z,13.35
2023-03-30T13:45:10.800Z,13.37
2023-03-30T13:47:57.509Z,13.37
2023-03-30T13:50:31.315Z,13.36
2023-03-30T13:53:05.577Z,13.37
2023-03-30T13:55:38.734Z,13.42
2023-03-30T13:58:14.130Z,13.53
2023-03-30T14:00:49.207Z,13.69
2023-03-30T14:03:29.403Z,14.04
2023-03-30T14:06:04.236Z,14.54
2023-03-30T14:08:37.295Z,14.77
2023-03-30T14:11:15.518Z,14.76
2023-03-30T14:13:45.161Z,14.63
2023-03-30T14:16:21.145Z,14.53
2023-03-30T14:18:51.152Z,14.40
2023-03-30T14:21:22.266Z,14.35
2023-03-30T14:23:54.336Z,14.40
2023-03-30T14:26:26.538Z,14.42
2023-03-30T14:28:55.383Z,14.42
2023-03-30T14:31:24.210Z,14.33
2023-03-30T14:33:53.088Z,14.17
2023-03-30T14:36:23.206Z,14.02
2023-03-30T14:38:55.135Z,13.91
2023-03-30T14:41:27.652Z,13.82
2023-03-30T14:44:01.557Z,13.69
2023-03-30T14:46:39.183Z,13.58
2023-03-30T14:49:09.238Z,13.51
2023-03-30T14:51:40.756Z,13.43
2023-03-30T14:54:14.249Z,13.40
2023-03-30T14:56:45.516Z,13.34
2023-03-30T14:59:16.169Z,13.30
2023-03-30T15:01:45.490Z,13.25
2023-03-30T15:04:17.343Z,13.17
2023-03-30T15:06:48.818Z,13.05
2023-03-30T15:09:21.219Z,12.94
2023-03-30T15:11:54.432Z,12.83
2023-03-30T15:14:24.468Z,12.70
2023-03-30T15:16:56.778Z,12.64
2023-03-30T15:19:30.074Z,12.62
2023-03-30T15:22:03.311Z,12.71
2023-03-30T15:24:38.115Z,12.83
2023-03-30T15:27:11.868Z,12.96
2023-03-30T15:29:42.148Z,13.06
2023-03-30T15:32:16.919Z,13.08
2023-03-30T15:35:07.129Z,13.06
2023-03-30T15:37:36.987Z,13.01
2023-03-30T15:40:29.056Z,12.96
2023-03-30T15:43:13.101Z,12.86
2023-03-30T15:45:47.561Z,12.83
2023-03-30T15:48:20.046Z,12.79
2023-03-30T15:50:54.257Z,12.75
2023-03-30T15:53:34.470Z,12.72
2023-03-30T15:56:05.083Z,12.66
2023-03-30T15:58:35.991Z,12.58
2023-03-30T16:01:06.293Z,12.51
2023-03-30T16:03:40.656Z,12.43
2023-03-30T16:06:14.964Z,12.39
2023-03-30T16:08:45.414Z,12.35
2023-03-30T16:11:17.121Z,12.30
2023-03-30T16:13:49.549Z,12.29
2023-03-30T16:16:19.107Z,12.27
2023-03-30T16:18:48.803Z,12.24
2023-03-30T16:21:19.214Z,12.23
2023-03-30T16:23:49.360Z,12.19
2023-03-30T16:26:20.006Z,12.16
2023-03-30T16:28:52.383Z,12.14
2023-03-30T16:31:23.890Z,12.14
2023-03-30T16:33:53.154Z,12.11
2023-03-30T16:36:24.226Z,12.08
2023-03-30T16:38:55.309Z,12.02
2023-03-30T16:41:25.856Z,11.97
2023-03-30T16:43:54.580Z,11.92
2023-03-30T16:46:24.390Z,11.89
2023-03-30T16:48:53.158Z,11.83
2023-03-30T16:51:22.864Z,11.78
2023-03-30T16:53:52.099Z,11.72
2023-03-30T16:56:21.954Z,11.66
2023-03-30T16:58:52.144Z,11.62
2023-03-30T17:01:21.776Z,11.56
2023-03-30T17:03:50.542Z,11.55
2023-03-30T17:06:19.133Z,11.54
2023-03-30T17:08:48.716Z,11.55
2023-03-30T17:11:18.432Z,11.56
2023-03-30T17:13:49.150Z,11.53
2023-03-30T17:16:20.128Z,11.45
2023-03-30T17:18:48.826Z,11.42
2023-03-30T17:21:18.568Z,11.39
2023-03-30T17:23:48.111Z,11.39
2023-03-30T17:26:17.614Z,11.36
2023-03-30T17:28:46.595Z,11.33
2023-03-30T17:31:19.233Z,11.28
2023-03-30T17:33:48.836Z,11.24
2023-03-30T17:36:19.786Z,11.20
2023-03-30T17:38:49.347Z,11.20
2023-03-30T17:41:19.720Z,11.16
2023-03-30T17:43:48.905Z,11.09
2023-03-30T17:46:20.808Z,11.06
2023-03-30T17:48:51.260Z,11.07
2023-03-30T17:51:20.732Z,11.03
2023-03-30T17:53:49.246Z,11.06
2023-03-30T17:56:17.978Z,11.03
2023-03-30T17:58:46.634Z,11.00
2023-03-30T18:01:17.150Z,10.96
2023-03-30T18:03:47.200Z,10.94
2023-03-30T18:06:16.607Z,10.94
2023-03-30T18:08:45.362Z,10.94
2023-03-30T18:11:14.611Z,10.93
2023-03-30T18:13:43.259Z,10.93
2023-03-30T18:16:13.346Z,10.90
2023-03-30T18:18:42.167Z,10.87
2023-03-30T18:21:13.160Z,10.81
2023-03-30T18:23:42.325Z,10.77
2023-03-30T18:26:14.001Z,10.76
2023-03-30T18:28:44.486Z,10.73
2023-03-30T18:31:13.968Z,10.70
2023-03-30T18:33:42.482Z,10.65
2023-03-30T18:36:15.831Z,10.61
2023-03-30T18:38:45.123Z,10.59
2023-03-30T18:41:15.360Z,10.53
2023-03-30T18:43:47.048Z,10.55
2023-03-30T18:46:18.245Z,10.51
2023-03-30T18:48:47.369Z,10.52
2023-03-30T18:51:17.642Z,10.50
2023-03-30T18:53:46.770Z,10.47
2023-03-30T18:56:15.940Z,10.41
2023-03-30T18:58:44.950Z,10.42
2023-03-30T19:01:17.862Z,10.39
2023-03-30T19:03:46.927Z,10.43
2023-03-30T19:06:22.977Z,10.48
2023-03-30T19:08:52.136Z,10.47
2023-03-30T19:11:23.656Z,10.44
2023-03-30T19:13:53.797Z,10.41
2023-03-30T19:16:23.490Z,10.42
2023-03-30T19:18:53.867Z,10.39
2023-03-30T19:21:24.890Z,10.35
2023-03-30T19:23:55.209Z,10.30
2023-03-30T19:26:24.059Z,10.25
2023-03-30T19:28:52.711Z,10.19
2023-03-30T19:31:22.431Z,10.10
2023-03-30T19:33:52.294Z,9.92
2023-03-30T19:36:23.286Z,9.69
2023-03-30T19:38:55.256Z,9.50
2023-03-30T19:41:24.025Z,9.38
2023-03-30T19:43:52.647Z,9.31
2023-03-30T19:46:22.241Z,9.23
2023-03-30T19:48:51.079Z,9.19
2023-03-30T19:51:20.264Z,9.15
2023-03-30T19:53:49.069Z,9.11
2023-03-30T19:56:19.360Z,9.08
2023-03-30T19:58:47.997Z,9.06
2023-03-30T20:01:16.815Z,9.05
2023-03-30T20:03:45.442Z,9.03
2023-03-30T20:06:14.413Z,9.03
2023-03-30T20:08:44.094Z,9.04
2023-03-30T20:11:13.805Z,9.03
2023-03-30T20:13:46.090Z,9.00
2023-03-30T20:16:20.527Z,8.99
2023-03-30T20:18:50.848Z,8.97
2023-03-30T20:21:20.299Z,8.95
2023-03-30T20:23:49.284Z,8.96
2023-03-30T20:26:19.627Z,8.93
2023-03-30T20:28:49.986Z,9.01
2023-03-30T20:31:18.888Z,9.02
2023-03-30T20:33:48.276Z,9.00
2023-03-30T20:36:16.979Z,9.01
2023-03-30T20:38:46.283Z,9.06
2023-03-30T20:41:15.139Z,9.13
2023-03-30T20:43:56.921Z,9.14
2023-03-30T20:46:35.525Z,9.24
2023-03-30T20:49:04.750Z,9.36
2023-03-30T20:51:33.952Z,9.50
2023-03-30T20:54:02.758Z,9.67
2023-03-30T20:56:31.603Z,9.80
2023-03-30T20:59:00.663Z,9.83
2023-03-30T21:01:30.687Z,9.92
2023-03-30T21:04:01.118Z,9.96
2023-03-30T21:06:31.900Z,10.00
2023-03-30T21:09:02.888Z,10.00
2023-03-30T21:11:34.191Z,10.04
2023-03-30T21:14:03.288Z,10.05
2023-03-30T21:16:34.427Z,10.06
2023-03-30T21:19:03.032Z,10.09
2023-03-30T21:21:33.957Z,10.10
2023-03-30T21:24:02.866Z,10.13
2023-03-30T21:26:31.722Z,10.17
2023-03-30T21:29:00.633Z,10.21
2023-03-30T21:31:29.544Z,10.24
2023-03-30T21:34:01.617Z,10.27
2023-03-30T21:36:30.415Z,10.27
2023-03-30T21:39:00.894Z,10.26
2023-03-30T21:41:30.538Z,10.27
2023-03-30T21:43:59.211Z,10.25
2023-03-30T21:46:29.290Z,10.26
2023-03-30T21:48:59.574Z,10.26
2023-03-30T21:51:30.412Z,10.27
2023-03-30T21:54:00.087Z,10.28
2023-03-30T21:56:31.170Z,10.29
2023-03-30T21:59:00.109Z,10.28
2023-03-30T22:01:29.280Z,10.29
2023-03-30T22:03:59.924Z,10.30
2023-03-30T22:06:28.936Z,10.28
2023-03-30T22:08:57.765Z,10.29
2023-03-30T22:11:27.635Z,10.31
2023-03-30T22:13:56.724Z,10.33
2023-03-30T22:16:28.329Z,10.33
2023-03-30T22:18:57.189Z,10.31
2023-03-30T22:21:34.199Z,10.32
2023-03-30T22:24:03.796Z,10.32
2023-03-30T22:26:32.742Z,10.31
2023-03-30T22:29:01.517Z,10.28
2023-03-30T22:31:29.929Z,10.32
2023-03-30T22:33:59.010Z,10.32
2023-03-30T22:36:31.154Z,10.31
2023-03-30T22:39:01.359Z,10.32
2023-03-30T22:41:30.338Z,10.33
2023-03-30T22:44:00.140Z,10.30
2023-03-30T22:46:29.451Z,10.30
2023-03-30T22:49:00.303Z,10.29
2023-03-30T22:51:31.117Z,10.33
2023-03-30T22:54:01.062Z,10.33
2023-03-30T22:56:31.180Z,10.33
2023-03-30T22:59:01.092Z,10.35
2023-03-30T23:01:32.325Z,10.35
2023-03-30T23:04:02.004Z,10.37
2023-03-30T23:06:33.800Z,10.40
2023-03-30T23:09:03.740Z,10.38
2023-03-30T23:11:34.303Z,10.38
2023-03-30T23:14:05.481Z,10.39
2023-03-30T23:16:36.117Z,10.44
2023-03-30T23:19:05.705Z,10.43
2023-03-30T23:21:35.907Z,10.45
2023-03-30T23:24:06.266Z,10.44
2023-03-30T23:26:36.084Z,10.43
2023-03-30T23:29:05.181Z,10.45
2023-03-30T23:31:34.920Z,10.46
2023-03-30T23:34:03.616Z,10.42
2023-03-30T23:36:33.438Z,10.42
2023-03-30T23:39:03.788Z,10.41
2023-03-30T23:41:32.403Z,10.40
2023-03-30T23:44:01.307Z,10.43
2023-03-30T23:46:30.259Z,10.42
2023-03-30T23:48:59.105Z,10.41
2023-03-30T23:51:27.668Z,10.37
2023-03-30T23:54:00.205Z,10.38
2023-03-30T23:56:32.241Z,10.38
2023-03-30T23:59:01.094Z,10.38
